x

South Hatteras - 225 South Of Cape Hatteras (41002) Wave Buoy

4:50 - Wed 7th Dec 2016 All times are EST. -5 hours from GMT.

  • Sig Wave height 10.2ft
  • Swell Direction
  • Peak Period 10s
  • Average Period 7s
  • Wind
    22mph, 27mph gusts
  • Sea Temp 74°f
  • Ar Temp 73°f
  • Sea Pressure 1011.1mb
  • South Hatteras - 225 South Of Cape Hatteras
  • South Hatteras - 225 South Of Cape Hatteras

More Historic Weather Station data

Upgrade to MSW Pro to gain access to the past 30 days of data for over 8000 Wavebouys and Weather Stations around the globe.

Join Pro

Comparision Forecast

View Surf forecast
   
Qua 12/07 4:50 10ft 10s 7s 22 27 mph 1011.1mb 74f 73f
3:50 11ft 9s 7s 22 27 mph 1010.5mb 74f 73f
2:50 11.5ft 9s 7s 22 27 mph 1010mb 74f 73f
1:50 11ft 9s 7s 25 31 mph 1009.1mb 74f 76f
12:50 12ft 9s 7s 25 31 mph 1009mb 74f 76f
Ter 12/06 11:50 12ft 9s 7s 27 31 mph 1009.2mb 74f 76f
10:50 11.5ft 9s 7s 27 36 mph 1009.1mb 74f 75f
6:50 10ft 8s 6s 27 31 mph 1009.2mb 74f 75f
5:50 9ft 7s 6s 29 36 mph 1008.8mb 74f 75f
4:50 8ft 7s 6s 27 31 mph 1009.1mb 74f 75f
3:50 7.5ft 7s 5s 16 18 mph 1010.5mb 74f 71f
2:50 6.5ft 7s 5s 27 31 mph 1009.1mb 74f 74f
11:50 5.5ft 6s 5s 22 27 mph 1011.9mb 74f 73f
10:50 6ft 6s 5s 18 20 mph 1014.2mb 74f 73f
9:50 5ft 7s 5s 25 29 mph 1014.3mb 74f 73f
8:50 4.5ft 7s 5s 22 25 mph 1014.2mb 74f 73f
7:50 5ft 6s 5s 18 25 mph 1014.4mb 74f 74f
6:50 6ft 6s 5s 18 22 mph 1014.2mb 74f 74f
5:50 5.5ft 6s 5s 18 22 mph 1014.5mb 74f 74f
4:50 5ft 6s 5s 20 25 mph 1013.6mb 74f 74f
3:50 6ft 6s 5s 20 25 mph 1013.4mb 74f 74f
2:50 5.5ft 7s 5s 18 25 mph 1013.7mb 74f 74f
1:50 5ft 7s 5s 22 27 mph 1013.8mb 74f 74f
12:50 5ft 6s 6s 20 25 mph 1014.2mb 74f 74f
Seg 12/05 11:50 5ft 6s 5s 13 16 mph 1014.9mb 74f 72f
10:50 5ft 7s 5s 13 16 mph 1015.1mb 74f 73f
9:50 5.5ft 6s 6s 16 20 mph 1014.9mb 74f 71f
8:50 5.5ft 6s 5s 13 16 mph 1015.6mb 74f 72f
7:50 6ft 6s 5s 18 22 mph 1015.6mb 74f 71f
6:50 6ft 6s 5s 20 25 mph 1015mb 74f 73f
5:50 6ft 7s 5s 18 22 mph 1015.1mb 74f 73f
4:50 6.5ft 7s 5s 22 29 mph 1014.3mb 74f 74f
3:50 6.5ft 6s 5s 25 31 mph 1013.8mb 74f 74f
2:50 6ft 6s 5s 22 29 mph 1014mb 73f 73f
1:50 6.5ft 6s 5s 25 29 mph 1013.9mb 73f 73f
12:50 5.5ft 6s 5s 25 31 mph 1014.1mb 73f 73f
11:50 6ft 5s 5s 25 31 mph 1014.7mb 73f 72f
10:50 5ft 5s 5s 27 31 mph 1015.9mb 73f 72f
9:50 4.5ft 5s 5s 20 25 mph 1017.8mb 73f 72f
8:50 4.5ft 5s 5s 20 25 mph 1017.5mb 73f 72f
7:50 4.5ft 5s 5s 20 22 mph 1017.9mb 73f 71f
6:50 4.5ft 4s 5s 22 25 mph 1017.4mb 73f 71f
5:50 4ft 9s 5s 20 25 mph 1017.9mb 73f 71f
4:50 4.5ft 10s 5s 20 27 mph 1017.8mb 73f 70f
3:50 3.5ft 9s 5s 20 25 mph 1018.1mb 73f 70f
2:50 3.5ft 10s 5s 18 22 mph 1018.7mb 73f 69f
1:50 3.5ft 9s 6s 16 20 mph 1019.4mb 73f 68f
12:50 4ft 9s 6s 18 22 mph 1019.4mb 73f 68f
Dom 12/04 11:50 4ft 9s 7s 13 16 mph 1020.7mb 73f 67f
10:50 4.5ft 9s 7s 11 16 mph 1021.1mb 73f 67f
9:50 4ft 8s 6s 9 13 mph 1021.7mb 73f 67f
8:50 4.5ft 10s 7s 11 13 mph 1021.9mb 73f 67f
7:50 4ft 9s 7s 7 9 mph 1022.2mb 73f 66f
6:50 4ft 9s 6s 4 9 mph 1021.9mb 73f 66f
5:50 4.5ft 10s 6s 9 11 mph 1021.4mb 73f 66f
4:50 4.5ft 9s 6s 4 7 mph 1021.6mb 73f 66f
3:50 4.5ft 9s 6s 4 7 mph 1021.3mb 74f 66f
2:50 4.5ft 9s 7s 4 7 mph 1021.1mb 74f 66f
1:50 4.5ft 10s 6s 2 4 mph 1021mb 74f 66f
12:50 5ft 9s 7s 4 9 mph 1021.6mb 73f 65f
11:50 5ft 9s 7s 2 4 mph 1022.4mb 73f 65f
10:50 4.5ft 9s 6s 4 7 mph 1022.8mb 73f 65f
9:50 4.5ft 10s 6s 9 11 mph 1022.8mb 73f 65f
8:50 4.5ft 9s 6s 9 13 mph 1022.5mb 73f 65f
7:50 5ft 9s 6s 11 16 mph 1022mb 73f 65f
6:50 5ft 9s 6s 11 16 mph 1021.4mb 73f 64f
5:50 4.5ft 10s 6s 11 16 mph 1021.2mb 73f 64f
4:50 5ft 8s 6s 13 18 mph 1020.6mb 73f 64f
3:50 5ft 9s 6s 13 18 mph 1020.9mb 73f 64f
2:50 5ft 9s 6s 11 16 mph 1021.2mb 73f 64f
1:50 5ft 9s 6s 9 13 mph 1021.8mb 73f 64f
12:50 5ft 8s 6s 9 13 mph 1021.9mb 73f 64f
Sáb 12/03 11:50 5ft 7s 6s 9 16 mph 1022.1mb 73f 64f
10:50 5.5ft 7s 6s 7 11 mph 1021.8mb 73f 64f
9:50 6ft 7s 6s 11 16 mph 1021.8mb 73f 63f
8:50 5ft 7s 6s 9 13 mph 1021.9mb 73f 63f
7:50 5ft 8s 6s 16 22 mph 1021.4mb 73f 64f
6:50 5ft 8s 5s 13 18 mph 1021.1mb 73f 63f
5:50 5ft 7s 6s 13 18 mph 1021mb 73f 63f
4:50 6ft 7s 6s 18 22 mph 1020.4mb 74f 63f
3:50 6ft 7s 6s 16 20 mph 1019.9mb 74f 64f
2:50 6ft 7s 6s 16 20 mph 1019.5mb 74f 64f
1:50 6ft 7s 6s 16 20 mph 1019.6mb 74f 64f
12:50 5ft 6s 5s 16 20 mph 1019.8mb 74f 64f
11:50 4.5ft 6s 5s 16 20 mph 1020.3mb 74f 65f
10:50 4.5ft 6s 5s 16 18 mph 1020.6mb 74f 65f